createdAt,value
2018-12-05T00:00:47.068Z,11.05
2018-12-05T00:03:16.191Z,9.70
2018-12-05T00:05:46.472Z,10.13
2018-12-05T00:08:15.652Z,13.38
2018-12-05T00:10:44.776Z,10.28
2018-12-05T00:13:15.342Z,10.48
2018-12-05T00:15:44.460Z,8.28
2018-12-05T00:18:13.539Z,8.98
2018-12-05T00:20:42.672Z,9.88
2018-12-05T00:23:11.823Z,8.35
2018-12-05T00:25:40.987Z,9.63
2018-12-05T00:28:10.069Z,18.45
2018-12-05T00:30:39.213Z,9.25
2018-12-05T00:33:08.456Z,14.70
2018-12-05T00:35:37.652Z,22.48
2018-12-05T00:38:06.801Z,12.03
2018-12-05T00:40:35.909Z,22.05
2018-12-05T00:43:05.225Z,9.50
2018-12-05T00:45:34.342Z,8.25
2018-12-05T00:48:03.483Z,8.23
2018-12-05T00:50:32.585Z,10.78
2018-12-05T00:53:01.747Z,9.48
2018-12-05T00:55:30.855Z,10.20
2018-12-05T00:57:59.987Z,9.68
2018-12-05T01:00:29.131Z,9.33
2018-12-05T01:02:58.335Z,5.75
2018-12-05T01:05:27.676Z,6.90
2018-12-05T01:07:56.997Z,7.60
2018-12-05T01:10:26.135Z,7.10
2018-12-05T01:12:55.242Z,9.75
2018-12-05T01:15:24.467Z,7.78
2018-12-05T01:17:53.623Z,8.30
2018-12-05T01:20:22.965Z,7.67
2018-12-05T01:22:52.121Z,10.53
2018-12-05T01:25:21.247Z,7.55
2018-12-05T01:27:50.483Z,9.65
2018-12-05T01:30:19.569Z,18.30
2018-12-05T01:32:48.699Z,4.33
2018-12-05T01:35:17.796Z,8.80
2018-12-05T01:37:47.355Z,7.83
2018-12-05T01:40:16.518Z,4.58
2018-12-05T01:42:45.628Z,9.65
2018-12-05T01:45:14.747Z,11.88
2018-12-05T01:47:43.876Z,7.75
2018-12-05T01:50:13.120Z,10.53
2018-12-05T01:52:42.333Z,6.22
2018-12-05T01:55:11.534Z,7.47
2018-12-05T01:57:40.646Z,7.55
2018-12-05T02:00:10.244Z,10.08
2018-12-05T02:02:39.334Z,8.40
2018-12-05T02:05:08.606Z,4.72
2018-12-05T02:07:37.704Z,7.12
2018-12-05T02:10:07.130Z,6.20
2018-12-05T02:12:36.236Z,9.03
2018-12-05T02:15:05.840Z,7.35
2018-12-05T02:17:35.044Z,7.65
2018-12-05T02:20:04.972Z,6.95
2018-12-05T02:22:34.092Z,13.22
2018-12-05T02:25:03.307Z,8.08
2018-12-05T02:27:32.484Z,8.78
2018-12-05T02:30:01.625Z,6.72
2018-12-05T02:32:30.757Z,10.28
2018-12-05T02:34:59.887Z,6.78
2018-12-05T02:37:28.976Z,7.75
2018-12-05T02:39:58.114Z,11.83
2018-12-05T02:42:27.261Z,8.33
2018-12-05T02:44:57.439Z,7.37
2018-12-05T02:47:26.759Z,6.78
2018-12-05T02:49:55.882Z,6.83
2018-12-05T02:52:24.984Z,9.68
2018-12-05T02:54:54.127Z,8.40
2018-12-05T02:57:23.260Z,5.47
2018-12-05T02:59:52.404Z,10.93
2018-12-05T03:02:21.536Z,7.05
2018-12-05T03:04:50.773Z,8.38
2018-12-05T03:07:19.879Z,12.95
2018-12-05T03:09:48.994Z,12.23
2018-12-05T03:12:18.269Z,6.15
2018-12-05T03:14:47.401Z,7.15
2018-12-05T03:17:16.583Z,5.42
2018-12-05T03:19:45.775Z,33.30
2018-12-05T03:22:14.848Z,7.60
2018-12-05T03:24:43.935Z,6.42
2018-12-05T03:27:13.085Z,9.90
2018-12-05T03:29:42.167Z,7.03
2018-12-05T03:32:13.352Z,7.45
2018-12-05T03:34:42.562Z,7.95
2018-12-05T03:37:11.623Z,9.85
2018-12-05T03:39:40.745Z,9.88
2018-12-05T03:42:10.173Z,11.22
2018-12-05T03:44:39.606Z,11.33
2018-12-05T03:47:08.756Z,5.50
2018-12-05T03:49:39.897Z,16.17
2018-12-05T03:52:09.039Z,8.93
2018-12-05T03:54:38.123Z,16.02
2018-12-05T03:57:07.227Z,7.08
2018-12-05T03:59:36.319Z,14.07
2018-12-05T04:02:05.455Z,13.08
2018-12-05T04:04:34.741Z,7.72
2018-12-05T04:07:03.824Z,10.68
2018-12-05T04:09:32.963Z,5.33
2018-12-05T04:12:02.126Z,6.47
2018-12-05T04:14:31.395Z,8.78
2018-12-05T04:17:00.559Z,5.80
2018-12-05T04:19:29.888Z,4.15
2018-12-05T04:21:59.020Z,4.55
2018-12-05T04:24:28.100Z,6.58
2018-12-05T04:26:57.189Z,3.55
2018-12-05T04:29:26.400Z,5.35
2018-12-05T04:31:55.528Z,6.87
2018-12-05T04:34:24.876Z,7.42
2018-12-05T04:36:54.016Z,7.80
2018-12-05T04:39:23.097Z,5.22
2018-12-05T04:41:52.728Z,5.67
2018-12-05T04:44:21.943Z,3.75
2018-12-05T04:46:51.318Z,5.83
2018-12-05T04:49:20.435Z,6.92
2018-12-05T04:51:49.565Z,4.00
2018-12-05T04:54:18.804Z,3.92
2018-12-05T04:56:47.945Z,16.05
2018-12-05T04:59:17.018Z,4.58
2018-12-05T05:01:46.197Z,5.55
2018-12-05T05:04:15.309Z,5.80
2018-12-05T05:06:44.555Z,3.77
2018-12-05T05:09:13.681Z,4.85
2018-12-05T05:11:42.800Z,4.10
2018-12-05T05:14:11.928Z,3.60
2018-12-05T05:16:41.194Z,5.00
2018-12-05T05:19:10.530Z,8.83
2018-12-05T05:21:39.716Z,7.45
2018-12-05T05:24:08.873Z,3.85
2018-12-05T05:26:38.088Z,13.68
2018-12-05T05:29:07.229Z,4.22
2018-12-05T05:31:36.380Z,3.70
2018-12-05T05:34:05.526Z,4.85
2018-12-05T05:36:34.654Z,4.70
2018-12-05T05:39:05.426Z,7.08
2018-12-05T05:41:34.610Z,10.85
2018-12-05T05:44:03.750Z,4.12
2018-12-05T05:46:32.884Z,4.58
2018-12-05T05:49:02.128Z,6.03
2018-12-05T05:51:31.265Z,8.00
2018-12-05T05:54:00.376Z,5.83
2018-12-05T05:56:29.450Z,5.20
2018-12-05T05:58:58.586Z,4.40
2018-12-05T06:01:27.698Z,8.33
2018-12-05T06:04:01.401Z,5.67
2018-12-05T06:06:30.585Z,6.20
2018-12-05T06:08:59.721Z,4.22
2018-12-05T06:11:28.957Z,10.03
2018-12-05T06:13:58.073Z,5.97
2018-12-05T06:16:27.405Z,3.92
2018-12-05T06:18:56.711Z,4.70
2018-12-05T06:21:26.132Z,4.80
2018-12-05T06:23:55.341Z,4.20
2018-12-05T06:26:24.438Z,4.90
2018-12-05T06:28:53.511Z,6.33
2018-12-05T06:31:22.604Z,6.42
2018-12-05T06:33:51.745Z,7.35
2018-12-05T06:36:20.905Z,5.37
2018-12-05T06:38:50.033Z,5.45
2018-12-05T06:41:19.145Z,4.60
2018-12-05T06:43:48.304Z,10.43
2018-12-05T06:46:17.445Z,4.05
2018-12-05T06:48:46.695Z,7.12
2018-12-05T06:51:15.865Z,5.95
2018-12-05T06:53:44.947Z,6.33
2018-12-05T06:56:14.085Z,5.58
2018-12-05T06:58:43.226Z,3.80
2018-12-05T07:01:12.419Z,8.18
2018-12-05T07:03:41.554Z,8.30
2018-12-05T07:06:10.725Z,7.25
2018-12-05T07:08:39.995Z,5.62
2018-12-05T07:11:09.069Z,5.62
2018-12-05T07:13:38.219Z,4.33
2018-12-05T07:16:07.353Z,10.13
2018-12-05T07:18:36.499Z,5.10
2018-12-05T07:21:05.787Z,14.47
2018-12-05T07:23:34.933Z,7.78
2018-12-05T07:26:04.100Z,7.12
2018-12-05T07:28:33.242Z,12.98
2018-12-05T07:31:02.364Z,8.43
2018-12-05T07:33:31.448Z,6.75
2018-12-05T07:36:00.607Z,7.05
2018-12-05T07:38:29.731Z,5.22
2018-12-05T07:40:58.997Z,5.28
2018-12-05T07:43:28.137Z,6.72
2018-12-05T07:45:57.346Z,9.10
2018-12-05T07:48:26.494Z,7.83
2018-12-05T07:50:55.660Z,8.93
2018-12-05T07:53:24.840Z,4.80
2018-12-05T07:55:53.975Z,9.88
2018-12-05T07:58:23.157Z,10.38
2018-12-05T08:00:52.320Z,6.97
2018-12-05T08:03:22.417Z,6.20
2018-12-05T08:05:51.588Z,10.50
2018-12-05T08:08:20.750Z,10.93
2018-12-05T08:10:50.078Z,8.40
2018-12-05T08:13:19.254Z,7.80
2018-12-05T08:15:48.384Z,8.05
2018-12-05T08:18:17.516Z,10.05
2018-12-05T08:20:46.710Z,8.80
2018-12-05T08:23:16.000Z,5.80
2018-12-05T08:25:45.116Z,4.33
2018-12-05T08:28:14.270Z,5.95
2018-12-05T08:30:43.397Z,6.55
2018-12-05T08:33:12.528Z,7.00
2018-12-05T08:35:42.863Z,5.45
2018-12-05T08:38:12.012Z,7.30
2018-12-05T08:40:41.223Z,7.42
2018-12-05T08:43:10.339Z,9.20
2018-12-05T08:45:39.535Z,13.25
2018-12-05T08:48:08.675Z,15.58
2018-12-05T08:50:37.931Z,5.78
2018-12-05T08:53:07.103Z,6.70
2018-12-05T08:55:36.457Z,9.93
2018-12-05T08:59:08.837Z,8.28
2018-12-05T09:01:38.029Z,4.33
2018-12-05T09:04:07.135Z,5.03
2018-12-05T09:06:36.237Z,4.83
2018-12-05T09:09:06.948Z,5.80
2018-12-05T09:11:36.227Z,5.33
2018-12-05T09:14:05.492Z,7.15
2018-12-05T09:16:34.672Z,4.92
2018-12-05T09:19:04.006Z,5.05
2018-12-05T09:21:33.334Z,15.13
2018-12-05T09:24:02.755Z,7.72
2018-12-05T09:26:31.911Z,8.70
2018-12-05T09:29:01.100Z,5.83
2018-12-05T09:31:30.234Z,5.70
2018-12-05T09:33:59.525Z,6.83
2018-12-05T09:36:28.760Z,5.12
2018-12-05T09:38:57.903Z,8.70
2018-12-05T09:41:27.071Z,9.43
2018-12-05T09:43:56.329Z,4.60
2018-12-05T09:46:25.456Z,5.93
2018-12-05T09:48:54.619Z,6.45
2018-12-05T09:51:23.809Z,9.23
2018-12-05T09:53:52.997Z,17.50
2018-12-05T09:56:22.106Z,8.87
2018-12-05T09:58:52.962Z,6.28
2018-12-05T10:01:22.367Z,14.43
2018-12-05T10:03:51.681Z,6.60
2018-12-05T10:06:20.856Z,7.70
2018-12-05T10:08:50.019Z,7.10
2018-12-05T10:11:19.166Z,6.93
2018-12-05T10:13:48.304Z,5.60
2018-12-05T10:16:17.436Z,5.40
2018-12-05T10:18:46.563Z,5.90
2018-12-05T10:21:15.738Z,7.37
2018-12-05T10:23:44.849Z,6.77
2018-12-05T10:26:14.167Z,11.60
2018-12-05T10:28:43.292Z,10.87
2018-12-05T10:31:12.451Z,9.40
2018-12-05T10:33:41.581Z,10.07
2018-12-05T10:36:10.741Z,4.80
2018-12-05T10:38:39.874Z,6.73
2018-12-05T10:41:09.139Z,7.43
2018-12-05T10:43:38.299Z,7.80
2018-12-05T10:46:07.540Z,7.53
2018-12-05T10:48:36.691Z,6.87
2018-12-05T10:51:05.828Z,6.87
2018-12-05T10:53:34.968Z,5.10
2018-12-05T10:56:04.133Z,5.50
2018-12-05T10:58:33.378Z,10.17
2018-12-05T11:01:07.988Z,6.73
2018-12-05T11:03:37.141Z,12.35
2018-12-05T11:06:11.712Z,7.05
2018-12-05T11:08:46.172Z,6.75
2018-12-05T11:11:20.948Z,11.85
2018-12-05T11:13:55.526Z,7.50
2018-12-05T11:16:30.050Z,7.85
2018-12-05T11:19:04.679Z,8.13
2018-12-05T11:21:39.179Z,4.65
2018-12-05T11:24:14.536Z,6.20
2018-12-05T11:26:43.840Z,4.67
2018-12-05T11:29:13.016Z,8.70
2018-12-05T11:31:42.147Z,4.45
2018-12-05T11:34:11.275Z,6.53
2018-12-05T11:36:40.439Z,8.83
2018-12-05T11:39:09.704Z,6.45
2018-12-05T11:41:38.794Z,5.35
2018-12-05T11:44:07.936Z,5.60
2018-12-05T11:46:37.068Z,5.50
2018-12-05T11:49:06.309Z,7.97
2018-12-05T11:51:35.388Z,9.88
2018-12-05T11:54:04.673Z,5.58
2018-12-05T11:56:33.812Z,6.37
2018-12-05T11:59:02.968Z,5.60
2018-12-05T12:01:32.116Z,9.40
2018-12-05T12:04:01.208Z,6.37
2018-12-05T12:06:30.372Z,5.00
2018-12-05T12:08:59.768Z,5.80
2018-12-05T12:11:29.157Z,14.85
2018-12-05T12:13:58.305Z,10.88
2018-12-05T12:16:27.668Z,4.08
2018-12-05T12:18:56.785Z,7.87
2018-12-05T12:21:25.856Z,5.83
2018-12-05T12:23:55.002Z,4.40
2018-12-05T12:26:24.177Z,7.40
2018-12-05T12:28:54.486Z,9.88
2018-12-05T12:31:23.572Z,8.20
2018-12-05T12:33:52.713Z,6.95
2018-12-05T12:36:21.949Z,6.72
2018-12-05T12:38:51.300Z,7.72
2018-12-05T12:41:20.455Z,4.70
2018-12-05T12:43:49.610Z,9.83
2018-12-05T12:46:18.993Z,12.28
2018-12-05T12:48:48.152Z,12.03
2018-12-05T12:51:17.276Z,6.50
2018-12-05T12:53:46.444Z,4.95
2018-12-05T12:56:15.627Z,5.70
2018-12-05T12:58:44.712Z,7.28
2018-12-05T13:01:13.846Z,10.90
2018-12-05T13:03:42.924Z,4.97
2018-12-05T13:06:12.145Z,5.62
2018-12-05T13:08:41.257Z,6.05
2018-12-05T13:11:10.641Z,5.65
2018-12-05T13:13:39.799Z,5.53
2018-12-05T13:16:08.944Z,4.60
2018-12-05T13:18:38.117Z,10.00
2018-12-05T13:21:07.248Z,6.35
2018-12-05T13:23:36.433Z,10.50
2018-12-05T13:26:05.641Z,6.75
2018-12-05T13:28:34.819Z,8.65
2018-12-05T13:31:04.129Z,5.83
2018-12-05T13:33:33.317Z,6.20
2018-12-05T13:36:02.477Z,5.40
2018-12-05T13:38:31.641Z,11.97
2018-12-05T13:41:00.787Z,5.65
2018-12-05T13:43:29.913Z,6.10
2018-12-05T13:45:59.041Z,8.68
2018-12-05T13:48:28.217Z,5.53
2018-12-05T13:50:57.476Z,20.90
2018-12-05T13:53:26.765Z,7.67
2018-12-05T13:55:55.999Z,7.62
2018-12-05T13:58:25.356Z,6.15
2018-12-05T14:00:54.531Z,7.83
2018-12-05T14:03:23.626Z,11.50
2018-12-05T14:05:52.780Z,8.43
2018-12-05T14:08:21.946Z,8.60
2018-12-05T14:10:51.110Z,12.20
2018-12-05T14:13:20.333Z,9.70
2018-12-05T14:15:49.480Z,10.93
2018-12-05T14:18:18.640Z,13.32
2018-12-05T14:20:47.770Z,11.18
2018-12-05T14:23:16.922Z,9.80
2018-12-05T14:25:46.095Z,9.60
2018-12-05T14:28:15.239Z,7.92
2018-12-05T14:30:44.412Z,14.98
2018-12-05T14:33:13.706Z,16.77
2018-12-05T14:35:43.819Z,9.98
2018-12-05T14:38:13.031Z,10.78
2018-12-05T14:40:42.232Z,15.25
2018-12-05T14:43:11.582Z,13.28
2018-12-05T14:45:40.726Z,10.35
2018-12-05T14:48:09.918Z,10.70
2018-12-05T14:50:39.198Z,13.48
2018-12-05T14:53:08.376Z,13.00
2018-12-05T14:55:37.552Z,10.70
2018-12-05T14:58:06.788Z,9.83
2018-12-05T15:00:36.095Z,17.60
2018-12-05T15:03:05.339Z,14.03
2018-12-05T15:05:34.637Z,15.90
2018-12-05T15:08:03.798Z,12.68
2018-12-05T15:10:32.986Z,15.83
2018-12-05T15:13:02.208Z,11.73
2018-12-05T15:15:31.400Z,28.92
2018-12-05T15:18:00.598Z,15.72
2018-12-05T15:20:29.784Z,22.98
2018-12-05T15:22:59.160Z,17.50
2018-12-05T15:25:28.358Z,15.68
2018-12-05T15:27:57.501Z,23.70
2018-12-05T15:30:26.658Z,13.38
2018-12-05T15:32:55.784Z,11.88
2018-12-05T15:35:26.018Z,25.43
2018-12-05T15:37:55.370Z,15.55
2018-12-05T15:40:24.512Z,13.15
2018-12-05T15:42:53.697Z,14.35
2018-12-05T15:45:22.890Z,14.30
2018-12-05T15:47:52.034Z,20.10
2018-12-05T15:50:21.195Z,16.55
2018-12-05T15:52:50.340Z,18.25
2018-12-05T15:55:19.496Z,11.20
2018-12-05T15:57:48.681Z,13.70
2018-12-05T16:00:17.932Z,18.05
2018-12-05T16:02:47.073Z,13.62
2018-12-05T16:05:16.785Z,16.85
2018-12-05T16:07:46.781Z,14.10
2018-12-05T16:10:15.940Z,14.80
2018-12-05T16:12:45.139Z,11.65
2018-12-05T16:15:14.424Z,17.27
2018-12-05T16:17:43.632Z,14.60
2018-12-05T16:20:12.748Z,17.70
2018-12-05T16:22:41.954Z,16.25
2018-12-05T16:25:11.149Z,15.93
2018-12-05T16:27:41.112Z,13.18
2018-12-05T16:30:11.122Z,19.87
2018-12-05T16:32:40.356Z,20.12
2018-12-05T16:35:09.516Z,14.33
2018-12-05T16:37:39.920Z,13.68
2018-12-05T16:40:09.079Z,24.85
2018-12-05T16:42:38.323Z,15.90
2018-12-05T16:45:08.255Z,18.35
2018-12-05T16:47:37.448Z,24.80
2018-12-05T16:50:07.157Z,19.30
2018-12-05T16:52:36.390Z,17.32
2018-12-05T16:55:05.747Z,13.85
2018-12-05T16:57:34.899Z,18.15
2018-12-05T17:00:04.768Z,16.95
2018-12-05T17:02:33.908Z,15.25
2018-12-05T17:05:03.045Z,19.60
2018-12-05T17:07:32.367Z,19.07
2018-12-05T17:10:01.563Z,12.85
2018-12-05T17:12:30.805Z,15.35
2018-12-05T17:14:59.926Z,16.73
2018-12-05T17:17:29.226Z,26.00
2018-12-05T17:19:58.380Z,20.62
2018-12-05T17:22:27.536Z,16.32
2018-12-05T17:24:56.673Z,21.02
2018-12-05T17:27:25.902Z,16.93
2018-12-05T17:29:55.089Z,24.57
2018-12-05T17:32:24.294Z,27.85
2018-12-05T17:34:53.510Z,19.70
2018-12-05T17:37:22.657Z,21.05
2018-12-05T17:39:51.954Z,20.88
2018-12-05T17:42:22.033Z,28.65
2018-12-05T17:44:51.536Z,29.57
2018-12-05T17:47:20.751Z,31.65
2018-12-05T17:49:49.909Z,17.80
2018-12-05T17:52:19.128Z,15.20
2018-12-05T17:54:49.117Z,21.62
2018-12-05T17:57:18.333Z,17.90
2018-12-05T17:59:47.420Z,17.23
2018-12-05T18:02:17.280Z,29.37
2018-12-05T18:04:46.442Z,20.75
2018-12-05T18:07:15.757Z,23.40
2018-12-05T18:09:44.929Z,32.48
2018-12-05T18:12:14.107Z,22.00
2018-12-05T18:14:43.269Z,20.80
2018-12-05T18:17:12.490Z,24.10
2018-12-05T18:19:41.611Z,20.52
2018-12-05T18:22:10.752Z,29.50
2018-12-05T18:24:39.867Z,17.23
2018-12-05T18:27:09.161Z,24.10
2018-12-05T18:29:38.381Z,35.05
2018-12-05T18:32:07.585Z,33.28
2018-12-05T18:34:36.750Z,25.75
2018-12-05T18:37:05.885Z,26.90
2018-12-05T18:39:35.061Z,26.00
2018-12-05T18:42:04.413Z,23.80
2018-12-05T18:44:33.589Z,22.62
2018-12-05T18:47:02.786Z,43.17
2018-12-05T18:49:32.025Z,24.98
2018-12-05T18:52:01.175Z,23.62
2018-12-05T18:54:30.929Z,32.53
2018-12-05T18:57:00.075Z,25.02
2018-12-05T18:59:29.237Z,19.67
2018-12-05T19:01:58.432Z,23.42
2018-12-05T19:04:27.604Z,24.87
2018-12-05T19:06:56.760Z,19.87
2018-12-05T19:09:26.932Z,23.40
2018-12-05T19:11:56.413Z,32.50
2018-12-05T19:14:30.929Z,37.42
2018-12-05T19:17:00.089Z,26.25
2018-12-05T19:19:29.236Z,28.83
2018-12-05T19:21:58.365Z,24.95
2018-12-05T19:24:27.509Z,26.05
2018-12-05T19:26:56.661Z,24.57
2018-12-05T19:29:25.825Z,27.20
2018-12-05T19:31:55.014Z,36.65
2018-12-05T19:34:24.157Z,25.15
2018-12-05T19:36:53.333Z,35.15
2018-12-05T19:39:22.501Z,20.23
2018-12-05T19:41:51.698Z,22.48
2018-12-05T19:44:21.049Z,22.07
2018-12-05T19:46:50.209Z,34.55
2018-12-05T19:49:19.445Z,26.02
2018-12-05T19:51:48.763Z,28.62
2018-12-05T19:54:17.942Z,23.12
2018-12-05T19:56:47.103Z,20.32
2018-12-05T19:59:16.295Z,36.05
2018-12-05T20:01:45.825Z,24.45
2018-12-05T20:04:15.033Z,24.30
2018-12-05T20:06:44.227Z,22.40
2018-12-05T20:09:13.465Z,27.40
2018-12-05T20:11:42.741Z,21.48
2018-12-05T20:14:16.247Z,22.95
2018-12-05T20:16:45.475Z,20.75
2018-12-05T20:19:14.723Z,23.20
2018-12-05T20:21:43.931Z,37.25
2018-12-05T20:24:13.115Z,23.50
2018-12-05T20:26:42.485Z,25.23
2018-12-05T20:29:11.679Z,23.70
2018-12-05T20:31:40.869Z,22.05
2018-12-05T20:34:10.037Z,22.48
2018-12-05T20:36:39.309Z,22.25
2018-12-05T20:39:10.718Z,30.90
2018-12-05T20:41:39.913Z,26.62
2018-12-05T20:44:10.422Z,21.07
2018-12-05T20:46:39.789Z,28.52
2018-12-05T20:49:08.975Z,29.82
2018-12-05T20:51:38.177Z,27.42
2018-12-05T20:54:07.353Z,28.80
2018-12-05T20:56:36.567Z,25.55
2018-12-05T20:59:05.772Z,20.48
2018-12-05T21:01:35.281Z,25.08
2018-12-05T21:04:04.622Z,29.32
2018-12-05T21:06:33.822Z,22.55
2018-12-05T21:09:03.680Z,19.55
2018-12-05T21:11:33.958Z,19.70
2018-12-05T21:14:03.298Z,29.35
2018-12-05T21:16:32.764Z,26.15
2018-12-05T21:19:02.066Z,27.48
2018-12-05T21:21:31.290Z,21.45
2018-12-05T21:24:00.490Z,23.07
2018-12-05T21:26:29.699Z,20.92
2018-12-05T21:28:58.862Z,29.67
2018-12-05T21:31:28.313Z,21.85
2018-12-05T21:33:57.513Z,22.80
2018-12-05T21:36:26.810Z,19.67
2018-12-05T21:38:56.014Z,19.02
2018-12-05T21:41:25.236Z,18.67
2018-12-05T21:43:54.504Z,22.32
2018-12-05T21:46:23.708Z,23.22
2018-12-05T21:48:54.030Z,21.85
2018-12-05T21:51:24.202Z,21.35
2018-12-05T21:53:53.394Z,19.87
2018-12-05T21:56:22.530Z,53.23
2018-12-05T21:58:51.736Z,24.77
2018-12-05T22:01:20.997Z,18.17
2018-12-05T22:03:50.176Z,29.60
2018-12-05T22:06:19.431Z,25.45
2018-12-05T22:08:48.636Z,32.70
2018-12-05T22:11:17.902Z,18.90
2018-12-05T22:13:47.086Z,20.48
2018-12-05T22:16:16.384Z,21.62
2018-12-05T22:18:45.606Z,17.15
2018-12-05T22:21:14.761Z,20.68
2018-12-05T22:23:43.964Z,19.70
2018-12-05T22:26:13.122Z,19.48
2018-12-05T22:28:42.320Z,20.05
2018-12-05T22:31:12.026Z,27.85
2018-12-05T22:33:41.208Z,23.18
2018-12-05T22:36:10.386Z,31.45
2018-12-05T22:38:39.598Z,21.93
2018-12-05T22:41:08.925Z,24.18
2018-12-05T22:43:38.144Z,26.93
2018-12-05T22:46:07.338Z,27.00
2018-12-05T22:48:36.564Z,36.10
2018-12-05T22:51:05.896Z,21.25
2018-12-05T22:53:35.165Z,25.20
2018-12-05T22:56:04.476Z,22.62
2018-12-05T22:58:33.698Z,25.25
2018-12-05T23:01:03.750Z,23.25
2018-12-05T23:03:34.871Z,26.73
2018-12-05T23:06:04.388Z,23.45
2018-12-05T23:08:33.574Z,25.65
2018-12-05T23:11:02.782Z,20.08
2018-12-05T23:13:32.079Z,26.93
2018-12-05T23:16:01.241Z,30.00
2018-12-05T23:18:30.632Z,24.50
2018-12-05T23:20:59.802Z,20.90
2018-12-05T23:23:28.985Z,23.35
2018-12-05T23:25:59.155Z,26.02
2018-12-05T23:28:28.351Z,33.13
2018-12-05T23:30:57.646Z,19.77
2018-12-05T23:33:26.899Z,25.02
2018-12-05T23:35:56.026Z,23.02
2018-12-05T23:38:25.181Z,22.77
2018-12-05T23:40:55.293Z,27.00
2018-12-05T23:43:24.714Z,20.75
2018-12-05T23:45:53.898Z,27.42
2018-12-05T23:48:23.211Z,26.25
2018-12-05T23:50:52.396Z,32.90
2018-12-05T23:53:21.812Z,24.55
2018-12-05T23:55:51.034Z,24.47
2018-12-05T23:58:20.194Z,25.65
